Time;durP1;ratioP1;P1;durP2;ratioP2;P2;SDS_P1;SDS_P2;PMS_P1;PMS_P2;Temp;Humidity;BMP_temperature;BMP_pressure;BME280_temperature;BME280_humidity;BME280_pressure;Samples;Min_cycle;Max_cycle;Signal;HPM_P1;HPM_P2
2021/10/11 00:01:53;;;;;;;14.40;13.00;;;;;;;10.00;67.92;101100.50;10267138;28;20105;-56
2021/10/11 00:06:54;;;;;;;17.98;13.98;;;;;;;9.89;68.01;101099.38;10263149;28;20054;-55
2021/10/11 00:11:55;;;;;;;14.85;13.32;;;;;;;10.01;67.97;101112.81;10246958;28;20051;-56
2021/10/11 00:16:57;;;;;;;15.65;13.50;;;;;;;10.06;67.66;101113.41;10264764;28;20074;-56
2021/10/11 00:21:59;;;;;;;16.95;13.95;;;;;;;10.08;67.48;101116.78;10260564;28;20046;-56
2021/10/11 00:27:01;;;;;;;15.20;13.60;;;;;;;10.05;67.70;101122.31;10267647;28;20117;-55
2021/10/11 00:32:03;;;;;;;15.82;14.23;;;;;;;9.95;68.15;101103.41;10264794;28;20047;-55
2021/10/11 00:37:05;;;;;;;15.70;14.20;;;;;;;10.09;68.00;101121.16;10261077;28;20084;-55
2021/10/11 00:42:07;;;;;;;17.08;14.10;;;;;;;10.11;68.18;101119.25;10236498;28;20102;-55
2021/10/11 00:47:08;;;;;;;15.98;14.30;;;;;;;9.87;68.26;101095.94;10275200;28;20140;-57
2021/10/11 00:52:10;;;;;;;16.35;14.75;;;;;;;9.85;68.81;101105.84;10273987;28;20488;-54
2021/10/11 00:57:11;;;;;;;17.25;14.98;;;;;;;9.76;68.92;101098.44;10267192;28;20096;-56
2021/10/11 01:02:13;;;;;;;17.65;13.25;;;;;;;9.70;69.63;101104.16;10264351;28;20080;-55
2021/10/11 01:07:14;;;;;;;14.50;12.98;;;;;;;9.71;69.33;101100.53;10245200;28;20105;-56
2021/10/11 01:12:16;;;;;;;20.52;14.55;;;;;;;9.68;68.89;101100.72;10240285;28;20074;-55
2021/10/11 01:17:17;;;;;;;15.18;13.05;;;;;;;9.67;69.17;101101.69;10263677;28;20573;-56
2021/10/11 01:22:19;;;;;;;15.07;13.43;;;;;;;9.68;68.84;101106.03;10262685;28;20102;-55
2021/10/11 01:27:27;;;;;;;16.25;14.30;;;;;;;9.53;69.02;101082.16;10264375;28;20054;-56
2021/10/11 01:32:29;;;;;;;13.75;12.32;;;;;;;9.47;68.99;101061.28;10242191;28;20610;-55
2021/10/11 01:37:30;;;;;;;14.63;13.13;;;;;;;9.46;68.95;101062.22;10259552;28;20530;-56
2021/10/11 01:42:32;;;;;;;13.85;12.48;;;;;;;9.45;69.22;101067.63;10237743;28;20464;-57
2021/10/11 01:47:33;;;;;;;14.75;13.18;;;;;;;9.41;69.04;101074.94;10255945;28;20047;-55
2021/10/11 01:52:36;;;;;;;15.48;12.30;;;;;;;9.34;69.33;101065.66;10238531;28;20047;-56
2021/10/11 01:57:37;;;;;;;15.55;12.65;;;;;;;9.42;69.18;101067.81;10229784;28;20130;-56
2021/10/11 02:02:39;;;;;;;13.82;12.35;;;;;;;9.36;69.09;101059.28;10255301;28;20051;-55
2021/10/11 02:07:40;;;;;;;15.43;13.80;;;;;;;9.29;69.54;101046.47;10260226;28;20043;-56
2021/10/11 02:12:42;;;;;;;14.00;12.60;;;;;;;9.32;69.22;101071.06;10239574;28;20075;-55
2021/10/11 02:17:43;;;;;;;15.20;12.20;;;;;;;9.22;69.08;101063.72;10265130;28;20078;-56
2021/10/11 02:22:45;;;;;;;14.93;12.45;;;;;;;9.26;68.93;101065.25;10243152;28;20121;-56
2021/10/11 02:27:46;;;;;;;14.30;12.80;;;;;;;9.19;68.82;101052.34;10240543;28;20051;-55
2021/10/11 02:32:48;;;;;;;13.65;12.27;;;;;;;9.29;68.25;101062.41;10258128;28;20055;-56
2021/10/11 02:37:49;;;;;;;15.02;13.43;;;;;;;9.20;68.66;101054.06;10257919;28;20082;-56
2021/10/11 02:42:51;;;;;;;13.70;12.30;;;;;;;9.19;68.78;101027.59;10244993;28;20055;-56
2021/10/11 02:47:52;;;;;;;14.68;13.20;;;;;;;9.05;69.51;101035.56;10263528;28;20097;-56
2021/10/11 02:52:57;;;;;;;15.40;13.70;;;;;;;9.04;69.66;101037.38;10257879;28;20489;-56
2021/10/11 02:57:58;;;;;;;14.32;12.88;;;;;;;8.99;69.86;101034.13;10252421;28;20070;-56
2021/10/11 03:03:00;;;;;;;15.05;13.38;;;;;;;8.85;69.51;101022.56;10250557;28;20481;-56
2021/10/11 03:08:01;;;;;;;14.43;12.15;;;;;;;8.95;69.35;101049.41;10250823;28;20086;-55
2021/10/11 03:13:03;;;;;;;14.13;12.07;;;;;;;8.90;69.31;101045.31;10246250;28;20065;-57
2021/10/11 03:18:04;;;;;;;15.05;12.95;;;;;;;8.55;68.98;101019.13;10248488;28;20139;-57
2021/10/11 03:23:06;;;;;;;14.75;13.25;;;;;;;8.65;69.15;101021.13;10256026;28;20055;-57
2021/10/11 03:28:08;;;;;;;14.15;12.35;;;;;;;8.67;68.86;101039.59;10246381;28;20405;-55
2021/10/11 03:33:10;;;;;;;13.13;11.73;;;;;;;8.70;68.90;101031.47;10260256;28;20173;-57
2021/10/11 03:38:11;;;;;;;14.68;12.70;;;;;;;8.62;69.06;101026.63;10240550;28;20082;-55
2021/10/11 03:43:13;;;;;;;15.65;12.85;;;;;;;8.53;68.89;101005.06;10255490;28;20062;-57
2021/10/11 03:48:15;;;;;;;14.45;12.48;;;;;;;8.58;70.03;101040.16;10259202;28;20101;-56
2021/10/11 03:53:19;;;;;;;17.27;13.68;;;;;;;8.47;69.59;101030.19;10268813;28;20059;-56
2021/10/11 03:58:20;;;;;;;15.32;13.43;;;;;;;8.32;69.52;101018.66;10260148;28;20499;-56
2021/10/11 04:03:22;;;;;;;13.75;12.32;;;;;;;8.39;69.22;101017.34;10243329;28;20102;-57
2021/10/11 04:08:31;;;;;;;13.73;12.15;;;;;;;8.59;68.63;101025.97;10253156;28;20054;-57
2021/10/11 04:13:33;;;;;;;15.38;13.80;;;;;;;8.60;68.36;101032.94;10257363;28;20047;-57
2021/10/11 04:18:34;;;;;;;17.80;14.20;;;;;;;8.55;69.20;101027.91;10262922;28;20124;-56
2021/10/11 04:23:36;;;;;;;18.15;14.90;;;;;;;8.53;69.52;101037.78;10260198;28;20078;-57
2021/10/11 04:28:38;;;;;;;15.45;13.68;;;;;;;8.54;69.59;101035.97;10266511;28;20119;-55
2021/10/11 04:33:39;;;;;;;17.27;13.95;;;;;;;8.45;69.87;101027.63;10253113;28;20043;-56
2021/10/11 04:38:41;;;;;;;17.73;14.65;;;;;;;8.35;69.93;101037.03;10262672;28;20114;-56
2021/10/11 04:43:42;;;;;;;16.70;14.65;;;;;;;8.25;70.06;101049.97;10262583;28;20051;-57
2021/10/11 04:48:43;;;;;;;16.15;14.45;;;;;;;8.20;70.73;101048.56;10275158;28;20042;-56
2021/10/11 04:53:45;;;;;;;16.02;14.35;;;;;;;8.11;71.36;101037.50;10280553;28;20097;-56
2021/10/11 04:58:46;;;;;;;15.60;14.00;;;;;;;8.18;70.94;101053.06;10240833;28;20077;-57
2021/10/11 05:03:48;;;;;;;15.65;13.90;;;;;;;8.08;70.57;101036.84;10246627;28;20492;-56
2021/10/11 05:08:49;;;;;;;15.73;14.02;;;;;;;8.12;71.07;101051.63;10244214;28;20047;-55
2021/10/11 05:13:50;;;;;;;16.30;14.55;;;;;;;8.22;70.46;101060.75;10242789;28;20103;-56
2021/10/11 05:18:52;;;;;;;18.77;15.77;;;;;;;8.25;70.98;101054.44;10260846;28;20090;-56
2021/10/11 05:23:53;;;;;;;17.85;15.07;;;;;;;8.25;70.62;101065.88;10255474;28;20102;-57
2021/10/11 05:28:55;;;;;;;15.45;13.80;;;;;;;8.13;70.33;101059.47;10264042;23;20972;-65
2021/10/11 05:33:56;;;;;;;21.00;16.73;;;;;;;7.93;71.05;101049.19;10286765;28;20503;-65
2021/10/11 05:38:58;;;;;;;22.17;17.95;;;;;;;7.88;71.35;101046.78;10266603;28;20648;-64
2021/10/11 05:44:00;;;;;;;26.15;20.50;;;;;;;7.80;71.92;101049.00;10254496;28;20078;-66
2021/10/11 05:49:02;;;;;;;30.63;21.20;;;;;;;7.82;71.59;101056.88;10260359;28;20059;-66
2021/10/11 05:54:03;;;;;;;22.70;18.38;;;;;;;7.88;71.63;101056.53;10259698;28;20102;-63
2021/10/11 05:59:04;;;;;;;23.35;16.80;;;;;;;7.86;71.20;101058.41;10241358;28;20055;-63
2021/10/11 06:04:06;;;;;;;18.10;16.08;;;;;;;8.04;70.58;101061.81;10244935;28;20051;-63
2021/10/11 06:09:08;;;;;;;20.60;16.45;;;;;;;8.10;70.73;101082.69;10243891;28;20057;-64
2021/10/11 06:14:09;;;;;;;20.27;17.05;;;;;;;8.16;70.00;101078.84;10241207;28;20047;-64
2021/10/11 06:19:11;;;;;;;21.38;16.50;;;;;;;8.19;69.61;101078.66;10254232;28;20851;-64
2021/10/11 06:24:12;;;;;;;20.13;16.98;;;;;;;8.22;69.48;101076.66;10233951;28;20113;-68
2021/10/11 06:29:14;;;;;;;20.00;15.68;;;;;;;8.38;69.69;101086.41;10238304;28;20074;-65
2021/10/11 06:34:16;;;;;;;21.67;17.33;;;;;;;8.52;68.91;101093.59;10234367;28;20054;-64
2021/10/11 06:39:17;;;;;;;26.75;18.25;;;;;;;8.52;68.75;101094.44;10236244;28;20209;-64
2021/10/11 06:44:19;;;;;;;26.55;18.02;;;;;;;8.52;69.76;101106.88;10235327;28;20058;-63
2021/10/11 06:49:20;;;;;;;23.50;17.80;;;;;;;8.72;69.32;101106.56;10232946;28;20735;-66
2021/10/11 06:54:22;;;;;;;24.25;17.70;;;;;;;8.58;68.93;101103.84;10231510;28;20526;-63
2021/10/11 06:59:23;;;;;;;21.35;17.75;;;;;;;8.60;68.77;101100.16;10238173;28;20067;-65
2021/10/11 07:04:24;;;;;;;22.40;18.42;;;;;;;8.64;69.49;101093.72;10240069;28;20051;-63
2021/10/11 07:09:26;;;;;;;24.65;16.67;;;;;;;8.70;69.26;101108.44;10241517;28;20463;-65
2021/10/11 07:14:28;;;;;;;20.27;16.65;;;;;;;8.84;69.20;101103.16;10235783;28;20082;-64
2021/10/11 07:19:29;;;;;;;19.85;15.70;;;;;;;8.98;68.79;101112.13;10240589;28;20167;-64
2021/10/11 07:24:31;;;;;;;20.70;16.20;;;;;;;9.01;68.72;101096.00;10240122;28;20478;-65
2021/10/11 07:29:32;;;;;;;23.35;17.05;;;;;;;9.01;69.25;101106.63;10238442;28;20153;-64
2021/10/11 07:34:34;;;;;;;20.75;16.30;;;;;;;9.13;69.51;101105.03;10234998;28;20142;-64
2021/10/11 07:39:35;;;;;;;21.58;17.73;;;;;;;9.19;69.28;101100.19;10237712;28;20075;-64
2021/10/11 07:44:37;;;;;;;22.02;15.77;;;;;;;9.26;69.43;101115.72;10236434;28;20067;-64
2021/10/11 07:49:39;;;;;;;21.25;17.02;;;;;;;9.30;69.45;101111.94;10240012;28;20051;-63
2021/10/11 07:54:40;;;;;;;18.08;15.38;;;;;;;9.31;69.55;101124.28;10241302;28;20130;-64
2021/10/11 07:59:42;;;;;;;18.75;15.40;;;;;;;9.43;68.72;101115.56;10238395;28;20508;-65
2021/10/11 08:04:43;;;;;;;18.25;16.00;;;;;;;9.46;68.75;101106.56;10239457;28;20078;-64
2021/10/11 08:09:44;;;;;;;17.35;14.93;;;;;;;9.55;68.58;101098.00;10236455;28;20142;-63
2021/10/11 08:14:46;;;;;;;18.58;14.90;;;;;;;9.53;68.19;101103.41;10245041;28;20083;-65
2021/10/11 08:19:47;;;;;;;17.10;14.15;;;;;;;9.68;67.90;101114.00;10249943;28;20141;-65
2021/10/11 08:24:51;;;;;;;16.38;14.55;;;;;;;9.84;67.71;101106.78;10245893;28;20070;-63
2021/10/11 08:29:53;;;;;;;18.63;15.35;;;;;;;9.76;67.33;101121.50;10242335;28;20054;-65
2021/10/11 08:34:54;;;;;;;19.95;14.50;;;;;;;9.86;67.72;101119.97;10245156;28;20129;-63
2021/10/11 08:39:56;;;;;;;16.15;14.45;;;;;;;9.82;67.18;101124.66;10244425;28;20136;-64
2021/10/11 08:44:58;;;;;;;17.52;15.50;;;;;;;9.89;68.66;101138.38;10246276;28;20596;-65
2021/10/11 08:49:59;;;;;;;17.20;15.45;;;;;;;9.97;68.34;101143.22;10249689;28;20194;-63
2021/10/11 08:55:01;;;;;;;16.88;15.00;;;;;;;10.01;68.96;101134.09;10246095;28;21946;-64
2021/10/11 09:00:07;;;;;;;18.63;16.73;;;;;;;10.12;68.95;101142.25;10247093;28;20148;-64
2021/10/11 09:05:08;;;;;;;18.45;16.08;;;;;;;10.17;68.26;101150.78;10241673;28;20141;-62
2021/10/11 09:10:10;;;;;;;19.13;17.13;;;;;;;10.34;68.71;101140.88;10247320;28;20202;-64
2021/10/11 09:15:13;;;;;;;19.63;17.65;;;;;;;10.37;67.79;101130.03;10244766;28;20070;-64
2021/10/11 09:20:16;;;;;;;18.92;16.85;;;;;;;10.56;66.83;101130.53;10243133;28;20133;-63
2021/10/11 09:25:19;;;;;;;21.77;16.67;;;;;;;10.82;66.39;101138.56;10238405;28;20400;-64
2021/10/11 09:30:26;;;;;;;23.00;18.52;;;;;;;10.78;65.52;101131.78;10243351;28;20164;-64
2021/10/11 09:35:32;;;;;;;21.10;18.88;;;;;;;10.99;65.95;101131.25;10241660;28;20475;-65
2021/10/11 09:40:40;;;;;;;21.00;17.70;;;;;;;11.30;65.14;101138.84;10246107;28;20057;-64
2021/10/11 09:45:43;;;;;;;23.52;18.70;;;;;;;11.68;63.94;101145.97;10244344;28;20051;-65
2021/10/11 09:50:45;;;;;;;21.63;18.35;;;;;;;11.91;62.84;101140.81;10237479;28;20047;-63
2021/10/11 09:55:47;;;;;;;22.85;18.80;;;;;;;11.80;62.72;101141.56;10235646;28;20132;-63
2021/10/11 10:00:48;;;;;;;23.48;18.63;;;;;;;12.01;63.50;101120.53;10239896;28;20456;-65
2021/10/11 10:05:55;;;;;;;22.77;19.48;;;;;;;12.19;62.38;101104.16;10235694;28;20055;-64
2021/10/11 10:11:01;;;;;;;28.33;21.30;;;;;;;12.16;62.26;101107.00;10245081;28;20543;-66
2021/10/11 10:16:08;;;;;;;23.40;19.75;;;;;;;12.20;62.56;101103.16;10243653;28;20101;-65
2021/10/11 10:21:11;;;;;;;23.45;20.92;;;;;;;11.99;63.33;101103.78;10240681;28;20054;-65
2021/10/11 10:26:24;;;;;;;25.60;21.67;;;;;;;11.79;64.59;101104.34;10242522;28;20696;-66
2021/10/11 10:31:37;;;;;;;25.00;21.92;;;;;;;11.84;64.83;101097.72;10242460;28;21393;-63
2021/10/11 10:36:43;;;;;;;25.27;21.85;;;;;;;12.03;64.53;101105.25;10239862;28;20158;-65
2021/10/11 10:41:55;;;;;;;25.80;22.58;;;;;;;12.09;64.05;101093.28;10243880;28;20588;-65
2021/10/11 10:47:01;;;;;;;25.38;22.35;;;;;;;12.22;64.05;101093.25;10237467;28;20673;-64
2021/10/11 10:52:12;;;;;;;26.15;22.42;;;;;;;12.24;64.57;101088.63;10234769;28;20051;-65
2021/10/11 10:57:18;;;;;;;26.83;21.38;;;;;;;12.55;64.10;101092.53;10237473;28;20391;-63
2021/10/11 11:02:21;;;;;;;26.63;22.25;;;;;;;12.58;63.20;101091.44;10237541;28;20055;-63
2021/10/11 11:07:26;;;;;;;25.88;21.27;;;;;;;12.64;63.43;101096.31;10239067;28;20120;-63
2021/10/11 11:12:30;;;;;;;23.90;21.27;;;;;;;12.45;63.44;101091.50;10241261;28;20653;-64
2021/10/11 11:17:37;;;;;;;28.33;23.98;;;;;;;12.60;63.90;101088.66;10235972;28;20059;-64
2021/10/11 11:22:38;;;;;;;28.23;23.48;;;;;;;12.87;63.56;101099.06;10236824;28;20125;-66
2021/10/11 11:27:43;;;;;;;26.60;22.52;;;;;;;12.97;63.63;101080.47;10244472;28;20074;-65
2021/10/11 11:32:44;;;;;;;;;;;;;;;12.98;63.74;101077.69;10253375;23;20137;-58
2021/10/11 11:37:51;;;;;;;27.05;24.05;;;;;;;12.70;64.08;101062.91;10262969;28;20201;-60
2021/10/11 11:42:54;;;;;;;27.30;23.70;;;;;;;12.47;65.26;101062.03;10268665;28;20102;-57
2021/10/11 11:48:03;;;;;;;28.65;23.30;;;;;;;12.41;65.13;101049.97;10271450;28;20764;-57
2021/10/11 11:53:11;;;;;;;27.60;23.52;;;;;;;12.45;65.92;101075.47;10271855;28;20054;-58
2021/10/11 11:58:24;;;;;;;27.77;24.77;;;;;;;12.55;65.93;101081.00;10269275;28;20061;-57
2021/10/11 12:03:32;;;;;;;25.52;22.05;;;;;;;12.75;65.87;101081.31;10276900;28;20058;-58
2021/10/11 12:08:34;;;;;;;28.38;25.00;;;;;;;12.98;64.68;101076.84;10269112;28;20172;-58
2021/10/11 12:13:39;;;;;;;33.15;26.48;;;;;;;13.21;64.14;101083.06;10267749;28;20154;-58
2021/10/11 12:18:45;;;;;;;29.85;24.30;;;;;;;13.54;62.92;101081.38;10254122;28;20137;-58
2021/10/11 12:23:47;;;;;;;27.45;23.67;;;;;;;13.73;62.46;101089.63;10267574;28;20142;-57
2021/10/11 12:28:50;;;;;;;28.65;23.80;;;;;;;13.83;62.77;101067.50;10264984;28;20149;-57
2021/10/11 12:34:01;;;;;;;27.25;23.65;;;;;;;13.70;63.39;101063.13;10254231;28;20170;-57
2021/10/11 12:39:12;;;;;;;28.15;24.17;;;;;;;13.65;63.12;101070.69;10262319;28;20181;-57
2021/10/11 12:44:17;;;;;;;28.30;23.92;;;;;;;13.70;63.02;101076.50;10267158;28;20074;-56
2021/10/11 12:49:33;;;;;;;27.52;24.60;;;;;;;13.60;64.00;101062.16;10263783;28;20511;-57
2021/10/11 12:54:39;;;;;;;26.15;23.33;;;;;;;13.81;63.46;101069.44;10265711;28;20159;-56
2021/10/11 12:59:41;;;;;;;26.63;23.83;;;;;;;14.00;62.94;101060.78;10226315;28;20154;-57
2021/10/11 13:04:43;;;;;;;28.75;24.75;;;;;;;14.55;61.15;101052.66;10234207;28;20415;-57
2021/10/11 13:09:45;;;;;;;28.48;24.17;;;;;;;14.72;60.46;101027.94;10230191;28;20500;-57
2021/10/11 13:14:46;;;;;;;25.05;22.27;;;;;;;16.45;56.57;101039.44;10233698;28;20441;-57
2021/10/11 13:19:47;;;;;;;27.50;21.88;;;;;;;19.05;48.89;101048.19;10262484;28;20081;-57
2021/10/11 13:24:49;;;;;;;24.13;21.45;;;;;;;20.19;46.27;101037.97;10263207;28;20074;-58
2021/10/11 14:27:58;;;;;;;20.65;18.42;;;;;;;18.14;50.81;100990.00;10256776;28;20062;-56
2021/10/11 16:03:57;;;;;;;21.20;19.02;;;;;;;13.76;68.55;100950.25;10260682;28;20130;-57
2021/10/11 16:08:59;;;;;;;25.50;19.42;;;;;;;13.71;68.89;100983.75;10262161;28;20186;-58
2021/10/11 16:14:00;;;;;;;22.73;19.48;;;;;;;13.58;69.51;100979.38;10265811;28;20051;-57
2021/10/11 16:19:04;;;;;;;23.40;20.45;;;;;;;13.42;70.40;100985.13;10262682;28;20079;-57
2021/10/11 16:24:05;;;;;;;23.07;20.60;;;;;;;13.39;70.66;100995.22;10257487;28;20065;-60
2021/10/11 16:29:07;;;;;;;22.58;18.27;;;;;;;13.27;71.51;100989.03;10269200;28;20180;-57
2021/10/11 16:34:08;;;;;;;23.13;19.63;;;;;;;13.21;71.92;100997.50;10267413;28;20310;-57
2021/10/11 16:39:10;;;;;;;22.95;20.52;;;;;;;13.23;72.10;100998.25;10265787;28;20145;-59
2021/10/11 16:44:11;;;;;;;22.67;18.10;;;;;;;13.09;72.12;100992.19;10263325;28;20350;-57
2021/10/11 16:49:14;;;;;;;25.48;20.60;;;;;;;12.99;72.60;100993.88;10262496;28;20567;-58
2021/10/11 16:54:18;;;;;;;23.25;20.42;;;;;;;13.02;72.89;101007.00;10265061;28;20531;-58
2021/10/11 16:59:19;;;;;;;23.48;20.10;;;;;;;13.04;73.31;101018.41;10258181;28;20112;-58
2021/10/11 17:04:21;;;;;;;21.70;19.17;;;;;;;12.97;73.45;101019.88;10258563;28;20149;-58
2021/10/11 17:09:23;;;;;;;20.95;18.58;;;;;;;12.89;73.27;101022.28;10256350;28;20138;-58
2021/10/11 17:14:25;;;;;;;22.17;18.85;;;;;;;12.76;72.87;101005.50;10267774;28;20515;-59
2021/10/11 17:19:26;;;;;;;24.77;17.88;;;;;;;12.82;73.00;101015.72;10262278;28;20061;-58
2021/10/11 17:24:28;;;;;;;19.83;17.80;;;;;;;12.76;73.05;101016.19;10264761;28;20226;-58
2021/10/11 17:29:29;;;;;;;19.08;16.52;;;;;;;12.76;72.48;101021.53;10270547;28;20731;-58
2021/10/11 17:34:31;;;;;;;14.70;13.20;;;;;;;12.63;72.41;100998.44;10255297;28;20141;-60
2021/10/11 17:39:32;;;;;;;16.00;13.70;;;;;;;12.70;72.57;101023.72;10265792;28;20137;-58
2021/10/11 17:44:35;;;;;;;16.85;12.20;;;;;;;12.64;72.60;101040.22;10262273;28;20133;-58
2021/10/11 17:49:39;;;;;;;17.42;14.13;;;;;;;12.55;72.71;101028.44;10266519;23;20519;-64
2021/10/11 17:54:41;;;;;;;21.90;16.85;;;;;;;12.49;73.49;101028.91;10229541;28;20078;-64
2021/10/11 17:59:43;;;;;;;20.38;17.73;;;;;;;12.50;74.01;101035.91;10207156;28;20067;-64
2021/10/11 18:04:44;;;;;;;19.60;17.52;;;;;;;12.42;73.49;101026.81;10208403;28;20130;-65
2021/10/11 18:09:46;;;;;;;21.35;16.00;;;;;;;12.46;73.53;101028.25;10204759;28;20071;-65
2021/10/11 18:14:47;;;;;;;21.45;16.17;;;;;;;12.46;73.83;101025.59;10266643;28;20129;-64
2021/10/11 18:19:49;;;;;;;23.10;17.60;;;;;;;12.44;73.93;101014.19;10270129;28;20070;-64
2021/10/11 18:31:12;;;;;;;19.73;17.30;;;;;;;12.42;74.04;101016.13;10243469;28;20054;-64
2021/10/11 18:36:14;;;;;;;18.38;16.45;;;;;;;12.33;73.97;101018.53;10244573;28;20062;-63
2021/10/11 18:41:15;;;;;;;22.77;15.77;;;;;;;12.35;74.42;101013.91;10249906;28;20110;-64
2021/10/11 18:46:17;;;;;;;21.27;14.32;;;;;;;12.32;74.25;101019.47;10251310;28;20501;-64
2021/10/11 18:51:21;;;;;;;24.13;16.30;;;;;;;12.32;74.21;101027.50;10259109;28;20530;-64
2021/10/11 18:56:22;;;;;;;20.80;18.20;;;;;;;12.29;74.25;101022.38;10255964;28;20471;-65
2021/10/11 19:01:24;;;;;;;22.13;17.42;;;;;;;12.33;74.27;101026.53;10256490;28;20801;-64
2021/10/11 19:06:31;;;;;;;22.27;18.02;;;;;;;12.35;74.48;101013.06;10257647;28;20487;-65
2021/10/11 19:11:32;;;;;;;23.70;18.23;;;;;;;12.40;74.13;101020.72;10264976;28;20512;-64
2021/10/11 19:16:35;;;;;;;20.63;16.63;;;;;;;12.43;74.36;101017.81;10259599;28;20136;-64
2021/10/11 19:21:37;;;;;;;19.45;17.23;;;;;;;12.48;73.86;101010.31;10229734;28;20496;-64
2021/10/11 19:26:39;;;;;;;23.05;17.02;;;;;;;12.47;73.83;101008.63;10230736;28;20189;-64
2021/10/11 19:31:40;;;;;;;19.25;16.88;;;;;;;12.31;74.03;101009.78;10255462;28;20097;-65
2021/10/11 19:36:42;;;;;;;21.33;17.38;;;;;;;12.35;74.91;101021.06;10262750;28;20459;-65
2021/10/11 19:41:43;;;;;;;26.63;19.00;;;;;;;12.41;74.32;101019.75;10254296;28;20129;-56
2021/10/11 19:46:45;;;;;;;19.00;16.90;;;;;;;12.38;74.38;101007.50;10237437;28;20731;-56
2021/10/11 19:51:47;;;;;;;24.63;20.15;;;;;;;12.36;74.54;101009.44;10230642;28;20097;-56
2021/10/11 19:56:48;;;;;;;22.90;19.83;;;;;;;12.31;74.58;101004.44;10234630;28;20134;-62
2021/10/11 20:01:50;;;;;;;22.98;19.00;;;;;;;12.27;74.92;101002.97;10228591;28;20130;-64
2021/10/11 20:06:51;;;;;;;22.02;17.73;;;;;;;12.22;74.89;101007.81;10267670;28;20058;-64
2021/10/11 20:11:53;;;;;;;22.38;18.27;;;;;;;12.24;75.21;101000.53;10265310;28;20229;-65
2021/10/11 20:16:54;;;;;;;23.27;18.98;;;;;;;12.27;74.91;100994.97;10263040;28;20051;-68
2021/10/11 20:21:56;;;;;;;19.98;17.83;;;;;;;12.32;74.86;100995.44;10273074;28;20047;-65
2021/10/11 20:26:58;;;;;;;20.92;17.83;;;;;;;12.40;74.93;100984.22;10268049;28;20082;-64
2021/10/11 20:31:59;;;;;;;21.10;17.48;;;;;;;12.38;74.77;100996.81;10278154;28;20074;-65
2021/10/11 20:37:01;;;;;;;20.33;16.38;;;;;;;12.41;74.89;100988.56;10271397;28;22023;-66
2021/10/11 20:42:03;;;;;;;20.77;17.67;;;;;;;12.41;74.95;100983.22;10270136;28;20070;-65
2021/10/11 20:47:05;;;;;;;21.17;17.95;;;;;;;12.44;75.33;100984.81;10272660;28;20595;-65
2021/10/11 20:52:06;;;;;;;27.88;18.25;;;;;;;12.38;75.43;100979.00;10300747;28;20051;-65
2021/10/11 20:57:08;;;;;;;19.98;15.95;;;;;;;12.40;75.80;100980.69;10302873;28;20058;-65
2021/10/11 21:02:09;;;;;;;23.20;17.17;;;;;;;12.37;75.76;100977.28;10307965;28;20569;-65
2021/10/11 21:07:11;;;;;;;24.67;17.25;;;;;;;12.33;75.65;100974.97;10300147;28;20066;-67
2021/10/11 21:12:12;;;;;;;19.77;16.00;;;;;;;12.30;75.60;100976.03;10237508;28;20130;-65
2021/10/11 21:17:13;;;;;;;18.48;16.55;;;;;;;12.30;75.70;100976.03;10201248;28;20438;-65
2021/10/11 21:22:15;;;;;;;19.25;16.67;;;;;;;12.23;75.76;100972.13;10225311;28;20047;-65
2021/10/11 21:27:17;;;;;;;19.77;16.60;;;;;;;12.14;75.27;100959.50;10221566;28;20063;-66
2021/10/11 21:32:18;;;;;;;22.90;16.60;;;;;;;12.13;75.41;100955.97;10223370;28;20078;-64
2021/10/11 21:37:20;;;;;;;17.63;15.95;;;;;;;12.16;75.85;100952.22;10227497;28;20086;-63
2021/10/11 21:42:21;;;;;;;18.83;16.05;;;;;;;12.16;75.78;100960.22;10254847;28;20059;-64
2021/10/11 21:47:23;;;;;;;20.40;16.40;;;;;;;12.20;75.93;100956.34;10228339;28;20055;-64
2021/10/11 21:52:26;;;;;;;17.35;14.93;;;;;;;12.19;75.80;100965.34;10226692;28;20070;-64
2021/10/11 21:57:27;;;;;;;17.00;14.10;;;;;;;12.23;75.42;100958.78;10231938;28;20226;-64
2021/10/11 22:02:29;;;;;;;17.90;14.45;;;;;;;12.25;75.48;100962.22;10232890;28;20100;-64
2021/10/11 22:07:31;;;;;;;17.85;15.23;;;;;;;12.20;75.81;100964.38;10229941;28;20606;-64
2021/10/11 22:12:32;;;;;;;15.60;13.80;;;;;;;12.25;76.13;100972.88;10229110;28;20051;-64
2021/10/11 22:17:35;;;;;;;17.02;15.02;;;;;;;12.29;76.05;100969.00;10221765;28;20184;-64
2021/10/11 22:22:36;;;;;;;14.75;13.13;;;;;;;12.33;75.83;100962.47;10233402;28;20105;-64
2021/10/11 22:27:37;;;;;;;19.15;14.00;;;;;;;12.35;75.67;100963.19;10243488;28;20066;-64
2021/10/11 22:32:40;;;;;;;17.83;14.02;;;;;;;12.30;75.37;100965.38;10232488;28;20129;-64
2021/10/11 22:37:42;;;;;;;14.65;12.85;;;;;;;12.25;75.24;100967.56;10230371;28;20082;-65
2021/10/11 22:42:43;;;;;;;17.45;13.32;;;;;;;12.19;75.67;100962.69;10219797;28;20067;-64
2021/10/11 22:47:45;;;;;;;21.55;15.10;;;;;;;12.18;75.20;100968.97;10222371;28;20449;-64
2021/10/11 22:52:52;;;;;;;16.25;14.05;;;;;;;12.09;76.03;100951.00;10219153;28;20155;-64
2021/10/11 22:57:54;;;;;;;19.58;13.82;;;;;;;12.05;76.13;100953.03;10223682;28;20051;-64
2021/10/11 23:02:57;;;;;;;16.45;13.80;;;;;;;12.12;76.12;100937.41;10227377;28;20075;-64
2021/10/11 23:07:59;;;;;;;17.53;15.30;;;;;;;12.02;76.29;100945.25;10230570;28;20043;-64
2021/10/11 23:13:00;;;;;;;21.48;15.93;;;;;;;11.99;76.16;100946.38;10222369;28;20046;-64
2021/10/11 23:18:02;;;;;;;16.80;13.40;;;;;;;12.00;76.71;100948.03;10224345;28;20078;-65
2021/10/11 23:23:03;;;;;;;17.95;14.85;;;;;;;11.97;76.73;100945.59;10224839;28;20114;-64
2021/10/11 23:28:05;;;;;;;15.48;13.48;;;;;;;11.93;76.63;100936.13;10248455;28;20107;-64
2021/10/11 23:33:07;;;;;;;18.20;14.85;;;;;;;11.90;77.03;100931.00;10240312;28;20059;-65
2021/10/11 23:38:08;;;;;;;19.45;13.95;;;;;;;11.96;76.84;100935.06;10224941;28;20062;-64
2021/10/11 23:43:10;;;;;;;20.50;14.95;;;;;;;11.93;76.55;100930.78;10231334;28;20043;-64
2021/10/11 23:48:12;;;;;;;17.85;14.07;;;;;;;11.95;76.65;100934.22;10230739;28;20051;-64
2021/10/11 23:53:13;;;;;;;17.35;13.93;;;;;;;12.00;76.31;100926.69;10226457;28;20051;-63
2021/10/11 23:58:15;;;;;;;15.77;14.13;;;;;;;11.95;76.64;100926.22;10310921;23;20527;-58
